sensor_id;sensor_type;location;lat;lon;timestamp;temperature;humidity
26691;DHT22;14307;51.718;8.938;2022-11-02T00:01:07;9.90;99.90
26691;DHT22;14307;51.718;8.938;2022-11-02T00:03:39;9.80;99.90
26691;DHT22;14307;51.718;8.938;2022-11-02T00:06:05;9.90;99.90
26691;DHT22;14307;51.718;8.938;2022-11-02T00:08:32;9.80;99.90
26691;DHT22;14307;51.718;8.938;2022-11-02T00:10:59;9.80;99.90
26691;DHT22;14307;51.718;8.938;2022-11-02T00:13:25;9.80;99.90
26691;DHT22;14307;51.718;8.938;2022-11-02T00:15:52;9.80;99.90
26691;DHT22;14307;51.718;8.938;2022-11-02T00:18:19;9.80;99.90
26691;DHT22;14307;51.718;8.938;2022-11-02T00:20:46;9.80;99.90
26691;DHT22;14307;51.718;8.938;2022-11-02T00:23:13;9.80;99.90
26691;DHT22;14307;51.718;8.938;2022-11-02T00:25:43;9.90;99.90
26691;DHT22;14307;51.718;8.938;2022-11-02T00:28:12;9.90;99.90
26691;DHT22;14307;51.718;8.938;2022-11-02T00:30:39;9.90;99.90
26691;DHT22;14307;51.718;8.938;2022-11-02T00:33:06;9.90;99.90
26691;DHT22;14307;51.718;8.938;2022-11-02T00:35:33;10.00;99.90
26691;DHT22;14307;51.718;8.938;2022-11-02T00:38:01;9.90;99.90
26691;DHT22;14307;51.718;8.938;2022-11-02T00:40:28;10.00;99.90
26691;DHT22;14307;51.718;8.938;2022-11-02T00:42:55;9.90;99.90
26691;DHT22;14307;51.718;8.938;2022-11-02T00:45:22;9.90;99.90
26691;DHT22;14307;51.718;8.938;2022-11-02T00:47:49;9.90;99.90
26691;DHT22;14307;51.718;8.938;2022-11-02T00:50:17;9.90;99.90
26691;DHT22;14307;51.718;8.938;2022-11-02T00:52:44;9.90;99.90
26691;DHT22;14307;51.718;8.938;2022-11-02T00:55:12;9.90;99.90
26691;DHT22;14307;51.718;8.938;2022-11-02T00:57:42;9.90;99.90
26691;DHT22;14307;51.718;8.938;2022-11-02T01:00:10;9.80;99.90
26691;DHT22;14307;51.718;8.938;2022-11-02T01:02:38;9.70;99.90
26691;DHT22;14307;51.718;8.938;2022-11-02T01:05:05;9.80;99.90
26691;DHT22;14307;51.718;8.938;2022-11-02T01:07:33;9.70;99.90
26691;DHT22;14307;51.718;8.938;2022-11-02T01:09:59;9.70;99.90
26691;DHT22;14307;51.718;8.938;2022-11-02T01:12:26;9.60;99.90
26691;DHT22;14307;51.718;8.938;2022-11-02T01:15:10;9.50;99.90
26691;DHT22;14307;51.718;8.938;2022-11-02T01:17:37;9.60;99.90
26691;DHT22;14307;51.718;8.938;2022-11-02T01:20:05;9.50;99.90
26691;DHT22;14307;51.718;8.938;2022-11-02T01:22:33;9.50;99.90
26691;DHT22;14307;51.718;8.938;2022-11-02T01:25:00;9.50;99.90
26691;DHT22;14307;51.718;8.938;2022-11-02T01:27:26;9.50;99.90
26691;DHT22;14307;51.718;8.938;2022-11-02T01:29:53;9.60;99.90
26691;DHT22;14307;51.718;8.938;2022-11-02T01:32:20;9.60;99.90
26691;DHT22;14307;51.718;8.938;2022-11-02T01:34:46;9.70;99.90
26691;DHT22;14307;51.718;8.938;2022-11-02T01:37:14;9.70;99.90
26691;DHT22;14307;51.718;8.938;2022-11-02T01:39:41;9.80;99.90
26691;DHT22;14307;51.718;8.938;2022-11-02T01:42:23;9.80;99.90
26691;DHT22;14307;51.718;8.938;2022-11-02T01:44:50;9.80;99.90
26691;DHT22;14307;51.718;8.938;2022-11-02T01:49:48;9.90;99.90
26691;DHT22;14307;51.718;8.938;2022-11-02T01:52:36;9.90;99.90
26691;DHT22;14307;51.718;8.938;2022-11-02T01:55:09;10.00;99.90
26691;DHT22;14307;51.718;8.938;2022-11-02T01:57:39;10.00;99.90
26691;DHT22;14307;51.718;8.938;2022-11-02T02:00:12;10.10;99.90
26691;DHT22;14307;51.718;8.938;2022-11-02T02:02:47;10.10;99.90
26691;DHT22;14307;51.718;8.938;2022-11-02T02:05:17;10.20;99.90
26691;DHT22;14307;51.718;8.938;2022-11-02T02:07:45;10.20;99.90
26691;DHT22;14307;51.718;8.938;2022-11-02T02:10:13;10.30;99.90
26691;DHT22;14307;51.718;8.938;2022-11-02T02:12:41;10.20;99.90
26691;DHT22;14307;51.718;8.938;2022-11-02T02:15:10;10.30;99.90
26691;DHT22;14307;51.718;8.938;2022-11-02T02:18:02;10.30;99.90
26691;DHT22;14307;51.718;8.938;2022-11-02T02:32:12;10.00;99.90
26691;DHT22;14307;51.718;8.938;2022-11-02T02:37:20;10.10;99.90
26691;DHT22;14307;51.718;8.938;2022-11-02T02:40:02;10.10;99.90
26691;DHT22;14307;51.718;8.938;2022-11-02T02:45:32;10.20;99.90
26691;DHT22;14307;51.718;8.938;2022-11-02T02:51:04;10.10;99.90
26691;DHT22;14307;51.718;8.938;2022-11-02T02:53:40;10.10;99.90
26691;DHT22;14307;51.718;8.938;2022-11-02T02:56:09;10.10;99.90
26691;DHT22;14307;51.718;8.938;2022-11-02T02:58:48;10.10;99.90
26691;DHT22;14307;51.718;8.938;2022-11-02T03:01:17;10.10;99.90
26691;DHT22;14307;51.718;8.938;2022-11-02T03:03:44;10.00;99.90
26691;DHT22;14307;51.718;8.938;2022-11-02T03:06:14;10.00;99.90
26691;DHT22;14307;51.718;8.938;2022-11-02T03:09:39;9.90;99.90
26691;DHT22;14307;51.718;8.938;2022-11-02T03:20:37;9.80;99.90
26691;DHT22;14307;51.718;8.938;2022-11-02T03:25:53;9.80;99.90
26691;DHT22;14307;51.718;8.938;2022-11-02T03:28:44;9.80;99.90
26691;DHT22;14307;51.718;8.938;2022-11-02T03:34:37;9.70;99.90
26691;DHT22;14307;51.718;8.938;2022-11-02T03:37:18;9.80;99.90
26691;DHT22;14307;51.718;8.938;2022-11-02T03:39:57;9.80;99.90
26691;DHT22;14307;51.718;8.938;2022-11-02T03:42:26;9.80;99.90
26691;DHT22;14307;51.718;8.938;2022-11-02T03:44:58;9.80;99.90
26691;DHT22;14307;51.718;8.938;2022-11-02T03:47:29;9.80;99.90
26691;DHT22;14307;51.718;8.938;2022-11-02T03:50:04;9.80;99.90
26691;DHT22;14307;51.718;8.938;2022-11-02T03:52:33;9.80;99.90
26691;DHT22;14307;51.718;8.938;2022-11-02T03:57:43;9.70;99.90
26691;DHT22;14307;51.718;8.938;2022-11-02T04:00:18;9.80;99.90
26691;DHT22;14307;51.718;8.938;2022-11-02T04:02:57;9.80;99.90
26691;DHT22;14307;51.718;8.938;2022-11-02T04:05:31;9.80;99.90
26691;DHT22;14307;51.718;8.938;2022-11-02T04:08:02;9.80;99.90
26691;DHT22;14307;51.718;8.938;2022-11-02T04:10:52;9.80;99.90
26691;DHT22;14307;51.718;8.938;2022-11-02T04:13:38;9.70;99.90
26691;DHT22;14307;51.718;8.938;2022-11-02T04:16:26;9.60;99.90
26691;DHT22;14307;51.718;8.938;2022-11-02T04:18:55;9.50;99.90
26691;DHT22;14307;51.718;8.938;2022-11-02T04:21:41;9.50;99.90
26691;DHT22;14307;51.718;8.938;2022-11-02T04:24:30;9.50;99.90
26691;DHT22;14307;51.718;8.938;2022-11-02T04:27:16;9.40;99.90
26691;DHT22;14307;51.718;8.938;2022-11-02T04:29:48;9.30;99.90
26691;DHT22;14307;51.718;8.938;2022-11-02T04:32:15;9.20;99.90
26691;DHT22;14307;51.718;8.938;2022-11-02T04:35:04;9.20;99.90
26691;DHT22;14307;51.718;8.938;2022-11-02T04:37:40;9.10;99.90
26691;DHT22;14307;51.718;8.938;2022-11-02T04:40:28;9.10;99.90
26691;DHT22;14307;51.718;8.938;2022-11-02T04:42:56;9.00;99.90
26691;DHT22;14307;51.718;8.938;2022-11-02T04:45:22;9.00;99.90
26691;DHT22;14307;51.718;8.938;2022-11-02T04:47:50;8.90;99.90
26691;DHT22;14307;51.718;8.938;2022-11-02T04:50:17;8.90;99.90
26691;DHT22;14307;51.718;8.938;2022-11-02T04:52:45;8.90;99.90
26691;DHT22;14307;51.718;8.938;2022-11-02T04:55:11;8.90;99.90
26691;DHT22;14307;51.718;8.938;2022-11-02T04:57:43;8.90;99.90
26691;DHT22;14307;51.718;8.938;2022-11-02T05:00:12;8.90;99.90
26691;DHT22;14307;51.718;8.938;2022-11-02T05:02:39;8.90;99.90
26691;DHT22;14307;51.718;8.938;2022-11-02T05:05:06;8.90;99.90
26691;DHT22;14307;51.718;8.938;2022-11-02T05:07:33;9.00;99.90
26691;DHT22;14307;51.718;8.938;2022-11-02T05:10:01;9.20;99.90
26691;DHT22;14307;51.718;8.938;2022-11-02T05:12:29;9.40;99.90
26691;DHT22;14307;51.718;8.938;2022-11-02T05:14:59;9.60;99.90
26691;DHT22;14307;51.718;8.938;2022-11-02T05:17:26;9.80;99.90
26691;DHT22;14307;51.718;8.938;2022-11-02T05:19:53;10.00;99.90
26691;DHT22;14307;51.718;8.938;2022-11-02T05:22:21;10.10;99.90
26691;DHT22;14307;51.718;8.938;2022-11-02T05:24:48;10.30;99.90
26691;DHT22;14307;51.718;8.938;2022-11-02T05:27:15;10.50;99.90
26691;DHT22;14307;51.718;8.938;2022-11-02T05:29:44;10.50;99.90
26691;DHT22;14307;51.718;8.938;2022-11-02T05:32:10;10.60;99.90
26691;DHT22;14307;51.718;8.938;2022-11-02T05:34:38;10.70;99.90
26691;DHT22;14307;51.718;8.938;2022-11-02T05:37:06;10.70;99.90
26691;DHT22;14307;51.718;8.938;2022-11-02T05:39:33;10.70;99.90
26691;DHT22;14307;51.718;8.938;2022-11-02T05:42:00;10.70;99.90
26691;DHT22;14307;51.718;8.938;2022-11-02T05:44:27;10.80;99.90
26691;DHT22;14307;51.718;8.938;2022-11-02T05:46:53;10.70;99.90
26691;DHT22;14307;51.718;8.938;2022-11-02T05:49:20;10.80;99.90
26691;DHT22;14307;51.718;8.938;2022-11-02T05:51:47;10.80;99.90
26691;DHT22;14307;51.718;8.938;2022-11-02T05:54:14;10.80;99.90
26691;DHT22;14307;51.718;8.938;2022-11-02T05:56:41;10.70;99.90
26691;DHT22;14307;51.718;8.938;2022-11-02T05:59:07;10.70;99.90
26691;DHT22;14307;51.718;8.938;2022-11-02T06:01:34;10.70;99.90
26691;DHT22;14307;51.718;8.938;2022-11-02T06:04:01;10.70;99.90
26691;DHT22;14307;51.718;8.938;2022-11-02T06:06:27;10.70;99.90
26691;DHT22;14307;51.718;8.938;2022-11-02T06:08:54;10.60;99.90
26691;DHT22;14307;51.718;8.938;2022-11-02T06:11:21;10.70;99.90
26691;DHT22;14307;51.718;8.938;2022-11-02T06:13:49;10.70;99.90
26691;DHT22;14307;51.718;8.938;2022-11-02T06:16:17;10.70;99.90
26691;DHT22;14307;51.718;8.938;2022-11-02T06:18:49;10.80;99.90
26691;DHT22;14307;51.718;8.938;2022-11-02T06:21:16;10.80;99.90
26691;DHT22;14307;51.718;8.938;2022-11-02T06:23:46;10.70;99.90
26691;DHT22;14307;51.718;8.938;2022-11-02T06:26:13;10.70;99.90
26691;DHT22;14307;51.718;8.938;2022-11-02T06:28:40;10.70;99.90
26691;DHT22;14307;51.718;8.938;2022-11-02T06:31:08;10.70;99.90
26691;DHT22;14307;51.718;8.938;2022-11-02T06:33:35;10.70;99.90
26691;DHT22;14307;51.718;8.938;2022-11-02T06:36:01;10.80;99.90
26691;DHT22;14307;51.718;8.938;2022-11-02T06:38:28;10.80;99.90
26691;DHT22;14307;51.718;8.938;2022-11-02T06:40:57;10.80;99.90
26691;DHT22;14307;51.718;8.938;2022-11-02T06:43:24;10.80;99.90
26691;DHT22;14307;51.718;8.938;2022-11-02T06:45:56;10.80;99.90
26691;DHT22;14307;51.718;8.938;2022-11-02T06:48:24;10.80;99.90
26691;DHT22;14307;51.718;8.938;2022-11-02T06:50:57;10.80;99.90
26691;DHT22;14307;51.718;8.938;2022-11-02T06:53:24;10.80;99.90
26691;DHT22;14307;51.718;8.938;2022-11-02T06:55:52;10.90;99.90
26691;DHT22;14307;51.718;8.938;2022-11-02T06:58:20;10.90;99.90
26691;DHT22;14307;51.718;8.938;2022-11-02T07:00:48;10.90;99.90
26691;DHT22;14307;51.718;8.938;2022-11-02T07:03:15;11.00;99.90
26691;DHT22;14307;51.718;8.938;2022-11-02T07:05:42;11.10;99.90
26691;DHT22;14307;51.718;8.938;2022-11-02T07:08:15;11.00;99.90
26691;DHT22;14307;51.718;8.938;2022-11-02T07:10:41;11.10;99.90
26691;DHT22;14307;51.718;8.938;2022-11-02T07:13:08;11.10;99.90
26691;DHT22;14307;51.718;8.938;2022-11-02T07:15:35;11.20;99.90
26691;DHT22;14307;51.718;8.938;2022-11-02T07:18:01;11.10;99.90
26691;DHT22;14307;51.718;8.938;2022-11-02T07:20:28;11.20;99.90
26691;DHT22;14307;51.718;8.938;2022-11-02T07:22:59;11.20;99.90
26691;DHT22;14307;51.718;8.938;2022-11-02T07:25:29;11.20;99.90
26691;DHT22;14307;51.718;8.938;2022-11-02T07:27:57;11.20;99.90
26691;DHT22;14307;51.718;8.938;2022-11-02T07:30:28;11.30;99.90
26691;DHT22;14307;51.718;8.938;2022-11-02T07:32:55;11.30;99.90
26691;DHT22;14307;51.718;8.938;2022-11-02T07:35:22;11.30;99.90
26691;DHT22;14307;51.718;8.938;2022-11-02T07:37:59;11.40;99.90
26691;DHT22;14307;51.718;8.938;2022-11-02T07:40:28;11.40;99.90
26691;DHT22;14307;51.718;8.938;2022-11-02T07:42:56;11.40;99.90
26691;DHT22;14307;51.718;8.938;2022-11-02T07:45:48;11.40;99.90
26691;DHT22;14307;51.718;8.938;2022-11-02T07:48:15;11.60;99.90
26691;DHT22;14307;51.718;8.938;2022-11-02T07:50:42;11.60;99.90
26691;DHT22;14307;51.718;8.938;2022-11-02T07:53:08;11.60;99.90
26691;DHT22;14307;51.718;8.938;2022-11-02T07:55:35;11.70;99.90
26691;DHT22;14307;51.718;8.938;2022-11-02T07:58:04;11.70;99.90
26691;DHT22;14307;51.718;8.938;2022-11-02T08:00:36;11.80;99.90
26691;DHT22;14307;51.718;8.938;2022-11-02T08:03:05;11.90;99.90
26691;DHT22;14307;51.718;8.938;2022-11-02T08:05:34;11.80;99.90
26691;DHT22;14307;51.718;8.938;2022-11-02T08:08:15;11.80;99.90
26691;DHT22;14307;51.718;8.938;2022-11-02T08:10:43;11.80;99.90
26691;DHT22;14307;51.718;8.938;2022-11-02T08:13:16;11.90;99.90
26691;DHT22;14307;51.718;8.938;2022-11-02T08:15:43;11.80;99.90
26691;DHT22;14307;51.718;8.938;2022-11-02T08:18:13;11.80;99.90
26691;DHT22;14307;51.718;8.938;2022-11-02T08:20:40;11.80;99.90
26691;DHT22;14307;51.718;8.938;2022-11-02T08:23:08;11.80;99.90
26691;DHT22;14307;51.718;8.938;2022-11-02T08:25:36;11.80;99.90
26691;DHT22;14307;51.718;8.938;2022-11-02T08:28:04;11.70;99.90
26691;DHT22;14307;51.718;8.938;2022-11-02T08:30:32;11.70;99.90
26691;DHT22;14307;51.718;8.938;2022-11-02T08:33:14;11.70;99.90
26691;DHT22;14307;51.718;8.938;2022-11-02T08:35:43;11.80;99.90
26691;DHT22;14307;51.718;8.938;2022-11-02T08:38:10;11.80;99.90
26691;DHT22;14307;51.718;8.938;2022-11-02T08:40:37;11.80;99.90
26691;DHT22;14307;51.718;8.938;2022-11-02T08:43:09;11.80;99.90
26691;DHT22;14307;51.718;8.938;2022-11-02T08:45:39;11.70;99.90
26691;DHT22;14307;51.718;8.938;2022-11-02T08:48:26;11.80;99.90
26691;DHT22;14307;51.718;8.938;2022-11-02T08:50:53;11.80;99.90
26691;DHT22;14307;51.718;8.938;2022-11-02T08:53:21;11.80;99.90
26691;DHT22;14307;51.718;8.938;2022-11-02T08:55:47;11.90;99.90
26691;DHT22;14307;51.718;8.938;2022-11-02T08:58:14;11.90;99.90
26691;DHT22;14307;51.718;8.938;2022-11-02T09:00:41;11.90;99.90
26691;DHT22;14307;51.718;8.938;2022-11-02T09:03:10;11.90;99.90
26691;DHT22;14307;51.718;8.938;2022-11-02T09:05:40;11.90;99.90
26691;DHT22;14307;51.718;8.938;2022-11-02T09:08:15;11.90;99.90
26691;DHT22;14307;51.718;8.938;2022-11-02T09:10:43;12.00;99.90
26691;DHT22;14307;51.718;8.938;2022-11-02T09:13:12;12.00;99.90
26691;DHT22;14307;51.718;8.938;2022-11-02T09:15:39;12.00;99.90
26691;DHT22;14307;51.718;8.938;2022-11-02T09:18:07;11.90;99.90
26691;DHT22;14307;51.718;8.938;2022-11-02T09:20:34;11.90;99.90
26691;DHT22;14307;51.718;8.938;2022-11-02T09:23:01;12.00;99.90
26691;DHT22;14307;51.718;8.938;2022-11-02T09:25:28;12.10;99.90
26691;DHT22;14307;51.718;8.938;2022-11-02T09:27:56;12.10;99.90
26691;DHT22;14307;51.718;8.938;2022-11-02T09:30:24;12.20;99.90
26691;DHT22;14307;51.718;8.938;2022-11-02T09:32:56;12.20;99.90
26691;DHT22;14307;51.718;8.938;2022-11-02T09:35:23;12.10;99.90
26691;DHT22;14307;51.718;8.938;2022-11-02T09:37:50;12.00;99.90
26691;DHT22;14307;51.718;8.938;2022-11-02T09:40:38;12.00;99.90
26691;DHT22;14307;51.718;8.938;2022-11-02T09:48:42;12.10;99.90
26691;DHT22;14307;51.718;8.938;2022-11-02T09:51:22;12.30;99.90
26691;DHT22;14307;51.718;8.938;2022-11-02T09:53:58;12.20;99.90
26691;DHT22;14307;51.718;8.938;2022-11-02T09:56:26;12.40;99.90
26691;DHT22;14307;51.718;8.938;2022-11-02T09:58:59;12.50;99.90
26691;DHT22;14307;51.718;8.938;2022-11-02T10:01:33;12.60;99.90
26691;DHT22;14307;51.718;8.938;2022-11-02T10:06:34;12.40;99.90
26691;DHT22;14307;51.718;8.938;2022-11-02T10:09:10;12.40;99.90
26691;DHT22;14307;51.718;8.938;2022-11-02T10:11:50;12.30;99.90
26691;DHT22;14307;51.718;8.938;2022-11-02T10:17:09;12.80;99.90
26691;DHT22;14307;51.718;8.938;2022-11-02T10:19:40;12.90;99.90
26691;DHT22;14307;51.718;8.938;2022-11-02T10:22:10;12.90;99.90
26691;DHT22;14307;51.718;8.938;2022-11-02T10:24:44;12.90;99.90
26691;DHT22;14307;51.718;8.938;2022-11-02T10:32:34;12.50;99.90
26691;DHT22;14307;51.718;8.938;2022-11-02T10:35:03;12.60;99.90
26691;DHT22;14307;51.718;8.938;2022-11-02T10:38:18;12.80;99.90
26691;DHT22;14307;51.718;8.938;2022-11-02T10:51:55;13.30;99.90
26691;DHT22;14307;51.718;8.938;2022-11-02T10:54:21;13.30;99.90
26691;DHT22;14307;51.718;8.938;2022-11-02T10:56:59;13.40;99.90
26691;DHT22;14307;51.718;8.938;2022-11-02T10:59:25;13.30;99.90
26691;DHT22;14307;51.718;8.938;2022-11-02T11:04:27;13.10;99.90
26691;DHT22;14307;51.718;8.938;2022-11-02T11:06:55;13.30;99.90
26691;DHT22;14307;51.718;8.938;2022-11-02T11:09:25;13.10;99.90
26691;DHT22;14307;51.718;8.938;2022-11-02T11:14:27;13.20;99.90
26691;DHT22;14307;51.718;8.938;2022-11-02T11:17:17;13.30;99.90
26691;DHT22;14307;51.718;8.938;2022-11-02T11:20:33;13.30;99.90
26691;DHT22;14307;51.718;8.938;2022-11-02T11:23:20;13.60;99.90
26691;DHT22;14307;51.718;8.938;2022-11-02T11:28:23;13.70;99.90
26691;DHT22;14307;51.718;8.938;2022-11-02T11:33:54;13.10;99.90
26691;DHT22;14307;51.718;8.938;2022-11-02T11:36:33;13.10;99.90
26691;DHT22;14307;51.718;8.938;2022-11-02T11:39:06;13.10;99.90
26691;DHT22;14307;51.718;8.938;2022-11-02T11:41:33;12.90;99.90
26691;DHT22;14307;51.718;8.938;2022-11-02T11:44:09;12.70;99.90
26691;DHT22;14307;51.718;8.938;2022-11-02T11:46:46;12.60;99.90
26691;DHT22;14307;51.718;8.938;2022-11-02T11:49:23;12.50;99.90
26691;DHT22;14307;51.718;8.938;2022-11-02T11:52:18;12.30;99.90
26691;DHT22;14307;51.718;8.938;2022-11-02T11:54:56;12.30;99.90
26691;DHT22;14307;51.718;8.938;2022-11-02T11:57:32;12.20;99.90
26691;DHT22;14307;51.718;8.938;2022-11-02T12:00:01;12.20;99.90
26691;DHT22;14307;51.718;8.938;2022-11-02T12:02:32;12.40;99.90
26691;DHT22;14307;51.718;8.938;2022-11-02T12:10:57;13.40;99.90
26691;DHT22;14307;51.718;8.938;2022-11-02T12:13:49;13.50;99.90
26691;DHT22;14307;51.718;8.938;2022-11-02T12:16:35;13.50;99.90
26691;DHT22;14307;51.718;8.938;2022-11-02T12:22:33;13.80;99.90
26691;DHT22;14307;51.718;8.938;2022-11-02T12:25:18;13.80;99.90
26691;DHT22;14307;51.718;8.938;2022-11-02T12:36:08;13.90;99.90
26691;DHT22;14307;51.718;8.938;2022-11-02T12:46:44;14.00;99.90
26691;DHT22;14307;51.718;8.938;2022-11-02T12:49:39;13.90;99.90
26691;DHT22;14307;51.718;8.938;2022-11-02T12:55:00;14.10;99.90
26691;DHT22;14307;51.718;8.938;2022-11-02T12:57:32;14.20;99.90
26691;DHT22;14307;51.718;8.938;2022-11-02T13:00:04;14.10;99.90
26691;DHT22;14307;51.718;8.938;2022-11-02T13:05:21;13.80;99.90
26691;DHT22;14307;51.718;8.938;2022-11-02T13:08:04;13.80;99.90
26691;DHT22;14307;51.718;8.938;2022-11-02T13:10:53;13.90;99.90
26691;DHT22;14307;51.718;8.938;2022-11-02T13:13:52;13.90;99.90
26691;DHT22;14307;51.718;8.938;2022-11-02T13:16:30;14.10;99.90
26691;DHT22;14307;51.718;8.938;2022-11-02T13:19:00;14.10;99.90
26691;DHT22;14307;51.718;8.938;2022-11-02T13:21:33;14.30;99.90
26691;DHT22;14307;51.718;8.938;2022-11-02T13:24:15;14.20;99.90
26691;DHT22;14307;51.718;8.938;2022-11-02T13:26:43;14.20;99.90
26691;DHT22;14307;51.718;8.938;2022-11-02T13:32:18;13.90;99.90
26691;DHT22;14307;51.718;8.938;2022-11-02T13:34:49;13.90;99.90
26691;DHT22;14307;51.718;8.938;2022-11-02T13:37:28;13.90;99.90
26691;DHT22;14307;51.718;8.938;2022-11-02T13:39:58;13.80;99.90
26691;DHT22;14307;51.718;8.938;2022-11-02T13:42:36;13.80;99.90
26691;DHT22;14307;51.718;8.938;2022-11-02T13:50:27;13.80;99.90
26691;DHT22;14307;51.718;8.938;2022-11-02T13:53:00;13.80;99.90
26691;DHT22;14307;51.718;8.938;2022-11-02T13:55:44;13.90;99.90
26691;DHT22;14307;51.718;8.938;2022-11-02T13:58:29;13.90;99.90
26691;DHT22;14307;51.718;8.938;2022-11-02T14:01:02;13.70;99.90
26691;DHT22;14307;51.718;8.938;2022-11-02T14:03:46;13.70;99.90
26691;DHT22;14307;51.718;8.938;2022-11-02T14:06:15;13.70;99.90
26691;DHT22;14307;51.718;8.938;2022-11-02T14:14:04;13.60;99.90
26691;DHT22;14307;51.718;8.938;2022-11-02T14:22:13;13.30;99.90
26691;DHT22;14307;51.718;8.938;2022-11-02T14:49:00;12.90;99.90
26691;DHT22;14307;51.718;8.938;2022-11-02T14:51:31;12.90;99.90
26691;DHT22;14307;51.718;8.938;2022-11-02T14:54:12;12.80;99.90
26691;DHT22;14307;51.718;8.938;2022-11-02T14:57:02;12.90;99.90
26691;DHT22;14307;51.718;8.938;2022-11-02T14:59:39;12.80;99.90
26691;DHT22;14307;51.718;8.938;2022-11-02T15:02:32;12.70;99.90
26691;DHT22;14307;51.718;8.938;2022-11-02T15:05:10;12.60;99.90
26691;DHT22;14307;51.718;8.938;2022-11-02T15:07:51;12.50;99.90
26691;DHT22;14307;51.718;8.938;2022-11-02T15:12:47;12.50;99.90
26691;DHT22;14307;51.718;8.938;2022-11-02T15:15:34;12.40;99.90
26691;DHT22;14307;51.718;8.938;2022-11-02T15:24:05;12.20;99.90
26691;DHT22;14307;51.718;8.938;2022-11-02T15:26:44;12.10;99.90
26691;DHT22;14307;51.718;8.938;2022-11-02T15:29:32;12.00;99.90
26691;DHT22;14307;51.718;8.938;2022-11-02T15:32:04;11.90;99.90
26691;DHT22;14307;51.718;8.938;2022-11-02T15:34:39;11.80;99.90
26691;DHT22;14307;51.718;8.938;2022-11-02T15:37:10;11.80;99.90
26691;DHT22;14307;51.718;8.938;2022-11-02T15:39:38;11.70;99.90
26691;DHT22;14307;51.718;8.938;2022-11-02T15:47:38;11.60;99.90
26691;DHT22;14307;51.718;8.938;2022-11-02T16:01:38;11.30;99.90
26691;DHT22;14307;51.718;8.938;2022-11-02T16:04:06;11.20;99.90
26691;DHT22;14307;51.718;8.938;2022-11-02T16:06:37;11.10;99.90
26691;DHT22;14307;51.718;8.938;2022-11-02T16:09:33;11.10;99.90
26691;DHT22;14307;51.718;8.938;2022-11-02T16:12:10;11.10;99.90
26691;DHT22;14307;51.718;8.938;2022-11-02T16:14:39;11.00;99.90
26691;DHT22;14307;51.718;8.938;2022-11-02T16:17:20;10.80;99.90
26691;DHT22;14307;51.718;8.938;2022-11-02T16:19:48;10.60;99.90
26691;DHT22;14307;51.718;8.938;2022-11-02T16:22:25;10.50;99.90
26691;DHT22;14307;51.718;8.938;2022-11-02T16:24:53;10.30;99.90
26691;DHT22;14307;51.718;8.938;2022-11-02T16:27:21;10.10;99.90
26691;DHT22;14307;51.718;8.938;2022-11-02T16:29:48;9.80;99.90
26691;DHT22;14307;51.718;8.938;2022-11-02T16:32:16;9.60;99.90
26691;DHT22;14307;51.718;8.938;2022-11-02T16:34:43;9.30;99.90
26691;DHT22;14307;51.718;8.938;2022-11-02T16:37:12;9.30;99.90
26691;DHT22;14307;51.718;8.938;2022-11-02T16:39:44;9.20;99.90
26691;DHT22;14307;51.718;8.938;2022-11-02T16:42:18;9.10;99.90
26691;DHT22;14307;51.718;8.938;2022-11-02T16:44:56;9.00;99.90
26691;DHT22;14307;51.718;8.938;2022-11-02T16:47:39;8.70;99.90
26691;DHT22;14307;51.718;8.938;2022-11-02T16:50:19;8.50;99.90
26691;DHT22;14307;51.718;8.938;2022-11-02T16:52:53;8.60;99.90
26691;DHT22;14307;51.718;8.938;2022-11-02T16:58:04;8.40;99.90
26691;DHT22;14307;51.718;8.938;2022-11-02T17:00:32;8.40;99.90
26691;DHT22;14307;51.718;8.938;2022-11-02T17:03:06;8.30;99.90
26691;DHT22;14307;51.718;8.938;2022-11-02T17:05:34;8.20;99.90
26691;DHT22;14307;51.718;8.938;2022-11-02T17:08:06;8.10;99.90
26691;DHT22;14307;51.718;8.938;2022-11-02T17:10:38;8.00;99.90
26691;DHT22;14307;51.718;8.938;2022-11-02T17:13:05;8.00;99.90
26691;DHT22;14307;51.718;8.938;2022-11-02T17:15:50;7.80;99.90
26691;DHT22;14307;51.718;8.938;2022-11-02T17:20:47;7.70;99.90
26691;DHT22;14307;51.718;8.938;2022-11-02T17:23:32;7.70;99.90
26691;DHT22;14307;51.718;8.938;2022-11-02T17:31:53;7.30;99.90
26691;DHT22;14307;51.718;8.938;2022-11-02T17:34:22;7.20;99.90
26691;DHT22;14307;51.718;8.938;2022-11-02T17:36:49;7.10;99.90
26691;DHT22;14307;51.718;8.938;2022-11-02T17:39:19;7.00;99.90
26691;DHT22;14307;51.718;8.938;2022-11-02T17:41:51;6.90;99.90
26691;DHT22;14307;51.718;8.938;2022-11-02T17:44:37;6.90;99.90
26691;DHT22;14307;51.718;8.938;2022-11-02T17:47:11;6.90;99.90
26691;DHT22;14307;51.718;8.938;2022-11-02T17:49:38;6.80;99.90
26691;DHT22;14307;51.718;8.938;2022-11-02T17:52:05;6.70;99.90
26691;DHT22;14307;51.718;8.938;2022-11-02T17:54:32;6.70;99.90
26691;DHT22;14307;51.718;8.938;2022-11-02T17:57:00;6.60;99.90
26691;DHT22;14307;51.718;8.938;2022-11-02T17:59:27;6.50;99.90
26691;DHT22;14307;51.718;8.938;2022-11-02T18:01:54;6.60;99.90
26691;DHT22;14307;51.718;8.938;2022-11-02T18:04:21;6.50;99.90
26691;DHT22;14307;51.718;8.938;2022-11-02T18:06:48;6.50;99.90
26691;DHT22;14307;51.718;8.938;2022-11-02T18:09:14;6.40;99.90
26691;DHT22;14307;51.718;8.938;2022-11-02T18:11:44;6.30;99.90
26691;DHT22;14307;51.718;8.938;2022-11-02T18:14:15;6.40;99.90
26691;DHT22;14307;51.718;8.938;2022-11-02T18:16:43;6.20;99.90
26691;DHT22;14307;51.718;8.938;2022-11-02T18:19:10;6.10;99.90
26691;DHT22;14307;51.718;8.938;2022-11-02T18:21:37;6.00;99.90
26691;DHT22;14307;51.718;8.938;2022-11-02T18:24:04;6.00;99.90
26691;DHT22;14307;51.718;8.938;2022-11-02T18:26:30;6.10;99.90
26691;DHT22;14307;51.718;8.938;2022-11-02T18:28:57;5.90;99.90
26691;DHT22;14307;51.718;8.938;2022-11-02T18:31:24;5.80;99.90
26691;DHT22;14307;51.718;8.938;2022-11-02T18:33:50;5.80;99.90
26691;DHT22;14307;51.718;8.938;2022-11-02T18:36:18;5.80;99.90
26691;DHT22;14307;51.718;8.938;2022-11-02T18:38:45;5.80;99.90
26691;DHT22;14307;51.718;8.938;2022-11-02T18:41:11;5.90;99.90
26691;DHT22;14307;51.718;8.938;2022-11-02T18:44:00;5.90;99.90
26691;DHT22;14307;51.718;8.938;2022-11-02T18:46:32;6.00;99.90
26691;DHT22;14307;51.718;8.938;2022-11-02T18:48:59;6.00;99.90
26691;DHT22;14307;51.718;8.938;2022-11-02T18:51:26;6.00;99.90
26691;DHT22;14307;51.718;8.938;2022-11-02T18:54:00;6.10;99.90
26691;DHT22;14307;51.718;8.938;2022-11-02T18:56:28;6.00;99.90
26691;DHT22;14307;51.718;8.938;2022-11-02T18:58:56;5.90;99.90
26691;DHT22;14307;51.718;8.938;2022-11-02T19:01:23;5.90;99.90
26691;DHT22;14307;51.718;8.938;2022-11-02T19:03:55;5.90;99.90
26691;DHT22;14307;51.718;8.938;2022-11-02T19:06:23;6.00;99.90
26691;DHT22;14307;51.718;8.938;2022-11-02T19:09:10;6.00;99.90
26691;DHT22;14307;51.718;8.938;2022-11-02T19:12:03;6.00;99.90
26691;DHT22;14307;51.718;8.938;2022-11-02T19:14:34;6.00;99.90
26691;DHT22;14307;51.718;8.938;2022-11-02T19:17:02;6.00;99.90